createdAt,value
2019-05-19T00:00:14.255Z,49.40
2019-05-19T00:02:43.936Z,49.42
2019-05-19T00:05:13.605Z,49.28
2019-05-19T00:07:43.012Z,49.53
2019-05-19T00:10:12.540Z,49.62
2019-05-19T00:12:41.882Z,49.73
2019-05-19T00:15:11.326Z,49.66
2019-05-19T00:17:40.776Z,49.94
2019-05-19T00:20:10.233Z,50.00
2019-05-19T00:22:39.688Z,50.21
2019-05-19T00:25:09.139Z,50.26
2019-05-19T00:27:38.553Z,50.38
2019-05-19T00:30:08.111Z,50.26
2019-05-19T00:32:37.484Z,50.38
2019-05-19T00:35:07.200Z,49.84
2019-05-19T00:37:36.676Z,49.82
2019-05-19T00:40:06.167Z,49.67
2019-05-19T00:42:35.530Z,49.70
2019-05-19T00:45:06.330Z,49.75
2019-05-19T00:47:35.803Z,49.56
2019-05-19T00:50:06.022Z,49.60
2019-05-19T00:52:35.483Z,49.50
2019-05-19T00:55:05.144Z,49.51
2019-05-19T00:57:34.684Z,49.75
2019-05-19T01:00:04.631Z,49.30
2019-05-19T01:02:33.998Z,49.15
2019-05-19T01:05:03.722Z,49.27
2019-05-19T01:07:33.101Z,49.43
2019-05-19T01:10:02.472Z,49.79
2019-05-19T01:12:31.951Z,49.81
2019-05-19T01:15:01.352Z,50.00
2019-05-19T01:17:30.716Z,50.62
2019-05-19T01:20:00.363Z,50.64
2019-05-19T01:22:30.256Z,50.75
2019-05-19T01:24:59.611Z,50.79
2019-05-19T01:27:28.984Z,51.12
2019-05-19T01:29:58.348Z,51.32
2019-05-19T01:32:27.777Z,51.36
2019-05-19T01:34:57.329Z,51.09
2019-05-19T01:37:26.746Z,50.99
2019-05-19T01:39:56.508Z,51.13
2019-05-19T01:42:26.043Z,51.30
2019-05-19T01:44:55.815Z,51.44
2019-05-19T01:47:25.227Z,51.41
2019-05-19T01:49:54.663Z,51.39
2019-05-19T01:52:24.119Z,51.22
2019-05-19T01:54:53.499Z,50.92
2019-05-19T01:57:22.903Z,50.73
2019-05-19T01:59:52.353Z,50.65
2019-05-19T02:02:21.860Z,50.71
2019-05-19T02:04:51.202Z,51.00
2019-05-19T02:07:20.610Z,50.81
2019-05-19T02:09:50.071Z,51.07
2019-05-19T02:12:19.827Z,51.00
2019-05-19T02:14:49.189Z,51.11
2019-05-19T02:17:18.536Z,50.65
2019-05-19T02:19:47.934Z,51.27
2019-05-19T02:22:17.402Z,50.35
2019-05-19T02:24:46.842Z,50.60
2019-05-19T02:27:16.436Z,50.42
2019-05-19T02:29:45.764Z,50.38
2019-05-19T02:32:15.169Z,50.51
2019-05-19T02:34:44.528Z,50.57
2019-05-19T02:37:13.955Z,51.00
2019-05-19T02:39:43.319Z,50.85
2019-05-19T02:42:12.836Z,51.07
2019-05-19T02:44:45.467Z,51.84
2019-05-19T02:47:15.446Z,52.59
2019-05-19T02:49:46.212Z,53.03
2019-05-19T02:52:15.651Z,53.29
2019-05-19T02:54:45.333Z,54.26
2019-05-19T02:57:15.006Z,54.12
2019-05-19T02:59:44.622Z,54.50
2019-05-19T03:02:14.976Z,54.60
2019-05-19T03:04:44.566Z,54.44
2019-05-19T03:07:14.076Z,54.93
2019-05-19T03:09:43.631Z,54.53
2019-05-19T03:12:13.201Z,54.25
2019-05-19T03:14:42.722Z,53.64
2019-05-19T03:17:12.268Z,53.56
2019-05-19T03:19:41.760Z,53.73
2019-05-19T03:22:11.300Z,53.75
2019-05-19T03:24:40.773Z,53.60
2019-05-19T03:27:10.347Z,53.31
2019-05-19T03:29:44.088Z,54.15
2019-05-19T03:32:26.663Z,54.57
2019-05-19T03:34:56.158Z,54.26
2019-05-19T03:37:25.629Z,53.94
2019-05-19T03:39:55.509Z,54.29
2019-05-19T03:42:25.021Z,54.59
2019-05-19T03:44:54.514Z,54.89
2019-05-19T03:47:23.999Z,56.49
2019-05-19T03:49:53.489Z,56.96
2019-05-19T03:52:22.994Z,56.65
2019-05-19T03:54:52.475Z,56.64
2019-05-19T03:57:21.960Z,56.16
2019-05-19T03:59:51.595Z,57.22
2019-05-19T04:02:21.077Z,57.21
2019-05-19T04:04:50.567Z,56.65
2019-05-19T04:07:20.212Z,56.01
2019-05-19T04:09:50.600Z,56.16
2019-05-19T04:12:20.214Z,56.29
2019-05-19T04:14:49.768Z,56.35
2019-05-19T04:17:19.382Z,56.48
2019-05-19T04:19:48.951Z,56.69
2019-05-19T04:22:18.517Z,56.46
2019-05-19T04:24:48.074Z,56.56
2019-05-19T04:27:17.558Z,56.87
2019-05-19T04:29:47.119Z,57.23
2019-05-19T04:32:16.699Z,57.06
2019-05-19T04:34:46.313Z,56.75
2019-05-19T04:37:15.871Z,57.02
2019-05-19T04:39:45.438Z,57.28
2019-05-19T04:42:14.977Z,57.48
2019-05-19T04:44:44.650Z,57.61
2019-05-19T04:47:14.119Z,57.81
2019-05-19T04:49:43.608Z,57.45
2019-05-19T04:52:13.190Z,57.57
2019-05-19T04:54:42.741Z,57.40
2019-05-19T04:57:12.334Z,56.96
2019-05-19T04:59:41.847Z,57.07
2019-05-19T05:02:11.461Z,56.00
2019-05-19T05:04:40.995Z,55.71
2019-05-19T05:07:10.613Z,56.10
2019-05-19T05:09:40.100Z,56.30
2019-05-19T05:12:09.628Z,55.54
2019-05-19T05:14:39.204Z,55.59
2019-05-19T05:17:08.797Z,55.95
2019-05-19T05:19:38.267Z,55.82
2019-05-19T05:22:21.214Z,55.92
2019-05-19T05:24:39.084Z,55.58
2019-05-19T05:27:08.510Z,56.10
2019-05-19T05:29:37.968Z,56.14
2019-05-19T05:32:07.390Z,55.50
2019-05-19T05:34:36.887Z,54.94
2019-05-19T05:37:06.361Z,55.00
2019-05-19T05:39:35.844Z,54.84
2019-05-19T05:42:05.366Z,55.26
2019-05-19T05:44:34.816Z,55.37
2019-05-19T05:47:04.783Z,53.84
2019-05-19T05:49:34.227Z,53.76
2019-05-19T05:52:03.714Z,53.83
2019-05-19T05:54:33.312Z,51.01
2019-05-19T05:57:02.774Z,53.23
2019-05-19T05:59:32.209Z,51.71
2019-05-19T06:02:01.682Z,53.42
2019-05-19T06:04:31.125Z,53.02
2019-05-19T06:07:00.557Z,51.94
2019-05-19T06:09:30.084Z,54.14
2019-05-19T06:11:59.542Z,54.39
2019-05-19T06:14:29.042Z,52.35
2019-05-19T06:16:58.582Z,53.65
2019-05-19T06:19:28.038Z,50.77
2019-05-19T06:21:57.503Z,54.20
2019-05-19T06:24:27.035Z,49.28
2019-05-19T06:26:56.558Z,51.12
2019-05-19T06:29:26.088Z,51.47
2019-05-19T06:31:59.430Z,52.79
2019-05-19T06:34:29.271Z,53.22
2019-05-19T06:36:58.741Z,50.90
2019-05-19T06:39:28.246Z,52.07
2019-05-19T06:41:57.715Z,49.77
2019-05-19T06:44:27.231Z,51.51
2019-05-19T06:46:56.844Z,52.12
2019-05-19T06:49:26.302Z,51.83
2019-05-19T06:51:55.739Z,52.02
2019-05-19T06:54:25.245Z,51.88
2019-05-19T06:56:54.686Z,51.93
2019-05-19T06:59:24.129Z,52.06
2019-05-19T07:01:53.622Z,51.80
2019-05-19T07:04:23.198Z,49.04
2019-05-19T07:06:53.095Z,51.31
2019-05-19T07:09:22.725Z,48.71
2019-05-19T07:11:52.282Z,49.16
2019-05-19T07:14:21.749Z,48.89
2019-05-19T07:16:51.591Z,49.52
2019-05-19T07:19:21.048Z,46.88
2019-05-19T07:21:50.593Z,46.19
2019-05-19T07:24:20.426Z,47.44
2019-05-19T07:26:49.868Z,48.83
2019-05-19T07:29:19.443Z,49.04
2019-05-19T07:31:48.962Z,47.73
2019-05-19T07:34:20.063Z,49.11
2019-05-19T07:36:49.671Z,47.42
2019-05-19T07:39:19.217Z,48.77
2019-05-19T07:41:54.468Z,47.40
2019-05-19T07:44:24.005Z,46.02
2019-05-19T07:46:56.807Z,45.97
2019-05-19T07:49:29.394Z,45.39
2019-05-19T07:51:59.227Z,45.43
2019-05-19T07:54:28.930Z,45.40
2019-05-19T07:56:59.048Z,45.35
2019-05-19T07:59:29.152Z,47.46
2019-05-19T08:01:58.946Z,46.23
2019-05-19T08:04:28.995Z,46.17
2019-05-19T08:06:58.422Z,45.69
2019-05-19T08:09:27.970Z,45.24
2019-05-19T08:11:57.481Z,45.05
2019-05-19T08:14:27.031Z,45.37
2019-05-19T08:16:59.533Z,45.12
2019-05-19T08:19:30.158Z,45.14
2019-05-19T08:21:59.665Z,45.33
2019-05-19T08:24:29.312Z,45.27
2019-05-19T08:26:58.738Z,44.89
2019-05-19T08:29:28.241Z,45.38
2019-05-19T08:31:57.703Z,45.29
2019-05-19T08:34:27.143Z,45.06
2019-05-19T08:36:56.661Z,48.02
2019-05-19T08:39:26.086Z,45.01
2019-05-19T08:41:55.620Z,44.66
2019-05-19T08:44:25.199Z,45.04
2019-05-19T08:46:54.726Z,44.52
2019-05-19T08:49:24.278Z,44.49
2019-05-19T08:51:53.830Z,44.71
2019-05-19T08:54:23.316Z,44.58
2019-05-19T08:56:52.937Z,44.87
2019-05-19T08:59:22.479Z,44.49
2019-05-19T09:01:51.976Z,44.30
2019-05-19T09:04:21.471Z,43.95
2019-05-19T09:06:50.977Z,44.08
2019-05-19T09:09:20.603Z,44.23
2019-05-19T09:11:50.100Z,43.91
2019-05-19T09:14:19.628Z,43.81
2019-05-19T09:16:52.186Z,44.14
2019-05-19T09:19:21.673Z,48.03
2019-05-19T09:21:51.246Z,44.32
2019-05-19T09:24:30.120Z,47.19
2019-05-19T09:26:51.886Z,43.73
2019-05-19T09:29:21.337Z,43.55
2019-05-19T09:31:51.083Z,45.53
2019-05-19T09:34:20.538Z,43.61
2019-05-19T09:36:49.906Z,43.48
2019-05-19T09:39:19.248Z,43.30
2019-05-19T09:41:48.605Z,43.85
2019-05-19T09:44:17.949Z,43.33
2019-05-19T09:46:47.383Z,43.34
2019-05-19T09:49:32.743Z,43.14
2019-05-19T09:52:02.900Z,42.69
2019-05-19T09:54:44.158Z,42.82
2019-05-19T09:57:03.513Z,42.63
2019-05-19T09:59:32.938Z,46.12
2019-05-19T10:02:02.305Z,42.74
2019-05-19T10:04:31.659Z,42.62
2019-05-19T10:07:01.525Z,48.32
2019-05-19T10:09:45.641Z,42.56
2019-05-19T10:12:15.085Z,41.88
2019-05-19T10:14:44.779Z,45.13
2019-05-19T10:17:14.222Z,42.77
2019-05-19T10:19:43.641Z,41.79
2019-05-19T10:22:13.094Z,41.67
2019-05-19T10:24:59.275Z,43.16
2019-05-19T10:27:14.341Z,43.35
2019-05-19T10:29:43.793Z,47.68
2019-05-19T10:32:13.274Z,48.42
2019-05-19T10:34:42.673Z,41.42
2019-05-19T10:37:31.193Z,44.15
2019-05-19T10:40:11.149Z,41.93
2019-05-19T10:42:37.719Z,40.60
2019-05-19T10:45:07.979Z,41.23
2019-05-19T10:47:37.418Z,43.97
2019-05-19T10:50:07.008Z,43.26
2019-05-19T10:52:36.460Z,43.82
2019-05-19T10:55:06.096Z,40.63
2019-05-19T10:57:35.591Z,41.83
2019-05-19T11:00:06.610Z,43.43
2019-05-19T11:02:36.101Z,43.24
2019-05-19T11:05:06.010Z,39.83
2019-05-19T11:07:35.448Z,41.18
2019-05-19T11:10:05.319Z,39.35
2019-05-19T11:12:34.757Z,42.08
2019-05-19T11:15:04.833Z,44.67
2019-05-19T11:17:34.287Z,43.29
2019-05-19T11:20:03.776Z,39.94
2019-05-19T11:22:33.210Z,42.48
2019-05-19T11:25:02.661Z,39.41
2019-05-19T11:27:32.078Z,42.00
2019-05-19T11:30:01.493Z,38.13
2019-05-19T11:32:31.179Z,43.86
2019-05-19T11:35:00.664Z,40.15
2019-05-19T11:37:30.068Z,39.74
2019-05-19T11:39:59.635Z,43.36
2019-05-19T11:42:29.179Z,42.64
2019-05-19T11:44:58.622Z,39.20
2019-05-19T11:47:27.988Z,39.87
2019-05-19T11:49:57.340Z,38.36
2019-05-19T11:52:26.690Z,39.52
2019-05-19T11:54:56.047Z,40.40
2019-05-19T11:57:25.409Z,42.20
2019-05-19T11:59:54.844Z,46.16
2019-05-19T12:02:24.183Z,48.48
2019-05-19T12:04:53.584Z,39.54
2019-05-19T12:07:22.934Z,37.37
2019-05-19T12:09:52.428Z,37.27
2019-05-19T12:12:21.772Z,37.68
2019-05-19T12:14:51.207Z,44.50
2019-05-19T12:17:20.613Z,39.57
2019-05-19T12:19:50.112Z,46.98
2019-05-19T12:22:19.485Z,44.65
2019-05-19T12:24:48.853Z,36.91
2019-05-19T12:27:18.371Z,39.46
2019-05-19T12:29:47.926Z,36.66
2019-05-19T12:32:17.347Z,40.55
2019-05-19T12:34:46.773Z,40.94
2019-05-19T12:37:16.156Z,40.98
2019-05-19T12:39:45.652Z,36.92
2019-05-19T12:42:15.134Z,39.46
2019-05-19T12:44:44.581Z,40.44
2019-05-19T12:47:14.061Z,39.26
2019-05-19T12:49:43.540Z,40.76
2019-05-19T12:52:13.073Z,40.27
2019-05-19T12:54:42.709Z,46.04
2019-05-19T12:57:12.210Z,44.21
2019-05-19T12:59:41.712Z,43.21
2019-05-19T13:02:12.775Z,36.68
2019-05-19T13:04:42.218Z,36.22
2019-05-19T13:07:11.639Z,38.35
2019-05-19T13:09:41.216Z,36.41
2019-05-19T13:12:10.811Z,35.88
2019-05-19T13:14:40.544Z,39.94
2019-05-19T13:17:10.079Z,39.32
2019-05-19T13:19:41.002Z,39.46
2019-05-19T13:22:10.729Z,40.13
2019-05-19T13:24:40.419Z,40.13
2019-05-19T13:27:09.958Z,45.62
2019-05-19T13:29:39.523Z,43.72
2019-05-19T13:32:09.146Z,43.16
2019-05-19T13:34:38.670Z,42.65
2019-05-19T13:37:08.331Z,35.44
2019-05-19T13:39:37.890Z,35.94
2019-05-19T13:42:07.446Z,38.88
2019-05-19T13:44:37.115Z,39.48
2019-05-19T13:47:06.754Z,34.61
2019-05-19T13:49:36.378Z,35.43
2019-05-19T13:52:05.987Z,37.26
2019-05-19T13:54:35.672Z,40.65
2019-05-19T13:57:12.432Z,41.19
2019-05-19T13:59:36.904Z,39.62
2019-05-19T14:02:06.602Z,40.15
2019-05-19T14:04:36.430Z,40.15
2019-05-19T14:07:06.532Z,38.95
2019-05-19T14:09:36.165Z,38.95
2019-05-19T14:12:05.904Z,38.29
2019-05-19T14:14:35.558Z,35.78
2019-05-19T14:17:05.334Z,34.14
2019-05-19T14:19:35.135Z,36.08
2019-05-19T14:22:04.888Z,33.86
2019-05-19T14:24:34.461Z,34.62
2019-05-19T14:27:04.035Z,34.62
2019-05-19T14:29:33.750Z,34.16
2019-05-19T14:32:03.401Z,36.92
2019-05-19T14:34:33.022Z,35.07
2019-05-19T14:37:02.723Z,35.90
2019-05-19T14:39:32.444Z,34.18
2019-05-19T14:42:05.685Z,34.75
2019-05-19T14:44:35.256Z,34.75
2019-05-19T14:47:05.029Z,34.68
2019-05-19T14:49:34.749Z,35.19
2019-05-19T14:52:04.539Z,34.40
2019-05-19T14:54:34.281Z,33.90
2019-05-19T14:57:04.096Z,33.64
2019-05-19T14:59:33.619Z,34.80
2019-05-19T15:02:03.411Z,33.62
2019-05-19T15:04:32.954Z,34.26
2019-05-19T15:07:02.572Z,34.26
2019-05-19T15:09:32.226Z,34.22
2019-05-19T15:12:01.952Z,34.21
2019-05-19T15:14:31.700Z,33.79
2019-05-19T15:17:01.282Z,34.81
2019-05-19T15:19:30.969Z,34.12
2019-05-19T15:22:00.632Z,34.08
2019-05-19T15:24:30.162Z,33.67
2019-05-19T15:26:59.954Z,33.47
2019-05-19T15:29:29.750Z,33.65
2019-05-19T15:31:59.405Z,33.42
2019-05-19T15:34:28.918Z,34.21
2019-05-19T15:36:58.716Z,35.07
2019-05-19T15:39:28.425Z,33.17
2019-05-19T15:41:57.968Z,33.47
2019-05-19T15:44:27.627Z,33.84
2019-05-19T15:46:57.352Z,33.80
2019-05-19T15:49:26.898Z,33.80
2019-05-19T15:52:02.763Z,34.00
2019-05-19T15:54:27.981Z,33.13
2019-05-19T15:56:57.558Z,33.07
2019-05-19T15:59:27.073Z,33.19
2019-05-19T16:01:56.623Z,33.11
2019-05-19T16:04:26.245Z,33.11
2019-05-19T16:06:55.884Z,33.49
2019-05-19T16:09:25.423Z,34.33
2019-05-19T16:11:55.036Z,34.06
2019-05-19T16:14:24.676Z,33.40
2019-05-19T16:16:54.343Z,33.48
2019-05-19T16:19:23.981Z,33.48
2019-05-19T16:21:53.522Z,33.31
2019-05-19T16:24:23.083Z,34.16
2019-05-19T16:26:52.691Z,33.73
2019-05-19T16:29:22.210Z,33.57
2019-05-19T16:31:51.751Z,34.29
2019-05-19T16:34:21.371Z,34.29
2019-05-19T16:36:50.973Z,33.59
2019-05-19T16:39:20.580Z,33.61
2019-05-19T16:41:50.199Z,33.61
2019-05-19T16:44:19.797Z,33.66
2019-05-19T16:46:49.529Z,33.56
2019-05-19T16:49:19.238Z,33.72
2019-05-19T16:51:48.749Z,34.07
2019-05-19T16:54:23.548Z,33.96
2019-05-19T16:56:53.164Z,34.04
2019-05-19T16:59:22.867Z,34.44
2019-05-19T17:01:52.714Z,34.06
2019-05-19T17:04:22.348Z,34.62
2019-05-19T17:06:52.033Z,34.33
2019-05-19T17:09:21.592Z,34.17
2019-05-19T17:11:51.129Z,34.48
2019-05-19T17:14:20.733Z,34.50
2019-05-19T17:16:50.459Z,34.54
2019-05-19T17:19:20.047Z,34.61
2019-05-19T17:21:50.050Z,34.48
2019-05-19T17:24:19.905Z,35.02
2019-05-19T17:26:52.631Z,35.23
2019-05-19T17:29:22.164Z,35.19
2019-05-19T17:32:04.018Z,35.44
2019-05-19T17:34:23.250Z,35.67
2019-05-19T17:36:52.922Z,36.35
2019-05-19T17:39:22.496Z,36.46
2019-05-19T17:41:52.181Z,36.67
2019-05-19T17:44:21.790Z,36.50
2019-05-19T17:46:51.660Z,36.67
2019-05-19T17:49:21.197Z,36.60
2019-05-19T17:51:50.884Z,37.17
2019-05-19T17:54:20.540Z,37.07
2019-05-19T17:56:51.613Z,36.96
2019-05-19T17:59:21.649Z,36.96
2019-05-19T18:01:51.378Z,36.93
2019-05-19T18:04:20.982Z,37.61
2019-05-19T18:06:50.720Z,37.71
2019-05-19T18:09:20.283Z,37.58
2019-05-19T18:11:49.905Z,37.84
2019-05-19T18:14:19.722Z,37.70
2019-05-19T18:16:49.336Z,37.81
2019-05-19T18:19:19.027Z,37.92
2019-05-19T18:21:48.649Z,37.74
2019-05-19T18:24:18.183Z,37.86
2019-05-19T18:26:54.308Z,37.94
2019-05-19T18:29:30.533Z,37.91
2019-05-19T18:31:50.647Z,38.31
2019-05-19T18:34:20.258Z,38.23
2019-05-19T18:36:49.779Z,38.40
2019-05-19T18:39:19.996Z,38.37
2019-05-19T18:41:49.583Z,38.55
2019-05-19T18:44:19.171Z,38.88
2019-05-19T18:46:50.494Z,38.68
2019-05-19T18:49:20.125Z,38.65
2019-05-19T18:51:49.777Z,38.91
2019-05-19T18:54:19.553Z,39.01
2019-05-19T18:56:51.228Z,39.14
2019-05-19T18:59:20.983Z,38.35
2019-05-19T19:01:50.666Z,38.92
2019-05-19T19:04:20.271Z,39.22
2019-05-19T19:06:49.885Z,39.13
2019-05-19T19:09:19.527Z,39.03
2019-05-19T19:11:49.139Z,39.27
2019-05-19T19:14:18.665Z,39.26
2019-05-19T19:16:48.392Z,39.36
2019-05-19T19:19:17.995Z,39.52
2019-05-19T19:21:47.711Z,39.37
2019-05-19T19:24:17.316Z,39.13
2019-05-19T19:26:46.920Z,39.28
2019-05-19T19:29:16.579Z,39.53
2019-05-19T19:31:48.530Z,39.48
2019-05-19T19:34:17.572Z,39.42
2019-05-19T19:36:47.308Z,39.58
2019-05-19T19:39:16.900Z,39.73
2019-05-19T19:41:46.949Z,39.39
2019-05-19T19:44:16.959Z,38.89
2019-05-19T19:46:46.872Z,39.94
2019-05-19T19:49:16.618Z,39.96
2019-05-19T19:51:48.731Z,40.13
2019-05-19T19:54:18.491Z,40.18
2019-05-19T19:56:49.609Z,40.05
2019-05-19T19:59:19.143Z,40.39
2019-05-19T20:01:48.759Z,40.28
2019-05-19T20:04:18.327Z,40.12
2019-05-19T20:06:47.982Z,39.32
2019-05-19T20:09:21.040Z,37.69
2019-05-19T20:11:48.972Z,37.12
2019-05-19T20:14:18.550Z,37.25
2019-05-19T20:16:49.577Z,37.46
2019-05-19T20:19:19.101Z,37.39
2019-05-19T20:21:48.630Z,38.53
2019-05-19T20:24:18.153Z,39.33
2019-05-19T20:26:47.736Z,39.90
2019-05-19T20:29:17.247Z,40.51
2019-05-19T20:31:46.737Z,40.19
2019-05-19T20:34:16.229Z,39.89
2019-05-19T20:36:45.737Z,41.08
2019-05-19T20:39:15.262Z,41.64
2019-05-19T20:41:44.822Z,41.80
2019-05-19T20:44:14.309Z,41.63
2019-05-19T20:46:43.918Z,41.88
2019-05-19T20:49:13.442Z,41.99
2019-05-19T20:51:43.260Z,41.97
2019-05-19T20:54:12.738Z,42.16
2019-05-19T20:56:42.256Z,42.09
2019-05-19T20:59:11.786Z,42.15
2019-05-19T21:01:41.346Z,42.45
2019-05-19T21:04:10.844Z,42.29
2019-05-19T21:06:40.348Z,42.51
2019-05-19T21:09:09.853Z,42.60
2019-05-19T21:11:39.393Z,42.51
2019-05-19T21:14:08.893Z,42.67
2019-05-19T21:16:38.463Z,42.92
2019-05-19T21:19:08.018Z,42.81
2019-05-19T21:21:37.538Z,42.86
2019-05-19T21:24:07.200Z,42.87
2019-05-19T21:26:36.743Z,42.94
2019-05-19T21:29:06.220Z,42.83
2019-05-19T21:31:35.716Z,42.89
2019-05-19T21:34:05.210Z,42.97
2019-05-19T21:36:34.802Z,43.04
2019-05-19T21:39:05.242Z,43.11
2019-05-19T21:41:34.757Z,43.12
2019-05-19T21:44:04.821Z,43.18
2019-05-19T21:46:34.308Z,43.19
2019-05-19T21:49:03.781Z,43.29
2019-05-19T21:51:33.354Z,43.37
2019-05-19T21:54:02.918Z,43.41
2019-05-19T21:56:32.423Z,43.55
2019-05-19T21:59:01.923Z,43.61
2019-05-19T22:01:31.416Z,43.59
2019-05-19T22:04:00.912Z,43.65
2019-05-19T22:06:32.132Z,43.68
2019-05-19T22:09:01.628Z,43.51
2019-05-19T22:11:31.483Z,43.91
2019-05-19T22:14:00.984Z,43.82
2019-05-19T22:16:30.495Z,43.89
2019-05-19T22:19:00.087Z,43.93
2019-05-19T22:21:29.659Z,44.03
2019-05-19T22:23:59.149Z,44.04
2019-05-19T22:26:28.667Z,44.05
2019-05-19T22:28:58.164Z,43.85
2019-05-19T22:31:36.563Z,44.05
2019-05-19T22:33:58.851Z,44.24
2019-05-19T22:36:28.334Z,44.18
2019-05-19T22:38:57.832Z,44.20
2019-05-19T22:41:27.336Z,44.27
2019-05-19T22:43:56.901Z,44.22
2019-05-19T22:46:26.397Z,44.26
2019-05-19T22:48:55.909Z,44.28
2019-05-19T22:51:25.405Z,44.36
2019-05-19T22:53:54.971Z,44.38
2019-05-19T22:56:24.453Z,44.41
2019-05-19T22:58:53.949Z,44.44
2019-05-19T23:01:23.446Z,44.44
2019-05-19T23:03:52.963Z,44.55
2019-05-19T23:06:22.534Z,44.46
2019-05-19T23:08:52.186Z,44.49
2019-05-19T23:11:21.680Z,44.52
2019-05-19T23:13:51.303Z,43.88
2019-05-19T23:16:20.869Z,44.63
2019-05-19T23:18:50.371Z,44.65
2019-05-19T23:21:19.938Z,44.71
2019-05-19T23:23:49.428Z,44.55
2019-05-19T23:26:18.922Z,43.78
2019-05-19T23:28:48.424Z,44.67
2019-05-19T23:31:17.986Z,43.73
2019-05-19T23:33:47.478Z,44.83
2019-05-19T23:36:16.955Z,44.17
2019-05-19T23:38:46.446Z,44.91
2019-05-19T23:41:15.929Z,45.00
2019-05-19T23:43:45.425Z,44.95
2019-05-19T23:46:14.917Z,44.99
2019-05-19T23:48:44.431Z,45.03
2019-05-19T23:51:13.922Z,44.96
2019-05-19T23:53:43.421Z,44.82
2019-05-19T23:56:12.980Z,46.36
2019-05-19T23:58:42.681Z,46.25
